Terminal Aerodrome Forecast
Issued by NWS Wilmington, OH

Current Version | Previous Version | Graphics & Text | Print | Product List | Glossary On
Versions: 1 2 3 4 5 6 7 8 9 10 11 12 13 14 15 16
168
FTUS41 KILN 132330
TAFCMH
TAF
KCMH 132330Z 1400/1424 29011KT P6SM BKN050
     FM140200 VRB04KT P6SM SKC
     FM141000 14004KT P6SM BKN200
     FM141500 14007KT P6SM BKN120
     FM142100 12009KT 5SM -SN BKN035 OVC050=

USA.gov is the U.S. government's official web portal to all federal, state and local government web resources and services.